LHBP/BUD METAR and TAF weather

Enter ICAO airport designator
Station Type Date Time Source
LHBP METAR 2020/09/21 08:00 UTC NOAA

LHBP 210800Z 15011KT 120V180 CAVOK 21/06 Q1020 NOSIG


Station Type Date Time Source
LHBP Decoded METAR 2020/09/21 08:00 UTC NOAA

Budapest / Ferihegy, Hungary (LHBP) 47-26N 019-16E 185M
Sep 21, 2020 - 04:00 AM EDT / 2020.09.21 0800 UTC
Wind: from the SSE (150 degrees) at 13 MPH (11 KT) (direction variable):0
Visibility: greater than 7 mile(s):0
Temperature: 69 F (21 C)
Dew Point: 42 F (6 C)
Relative Humidity: 37%
Pressure (altimeter): 30.12 in. Hg (1020 hPa)
ob: LHBP 210800Z 15011KT 120V180 CAVOK 21/06 Q1020 NOSIG
cycle: 8

Station Type Date Time Source
LHBP TAF 2020/09/21 06:27 UTC NOAA

TAF TAF LHBP 210515Z 2106/2206 08004KT CAVOK
BECMG 2107/2110 14010KT
BECMG 2115/2118 09006KT

Example: see airport list